Flight Track Log - Related Links

Times and Time Zones

All times are in EDT time to prevent confusion due to time zone crossing. See the EJA922 flight status page for this flight to view local times or setup timezone preferences in your user account.

Time Position Orientation Groundspeed Altitude Reporting Facility
EDT Latitude Longitude Course Direction KTS MPH feet Rate Location/Type
Thu 12:19:22 PM 37.4500 -121.9500 141° Southeast 235 270 5,000  Level Northern Cal TRACON
Thu 12:21:40 PM 37.3614 -121.8236 131° Southeast 225 259 8,000 1,749 Climbing Oakland Center
Thu 12:22:41 PM 37.2969 -121.7508 138° Southeast 270 311 10,800 2,195 Climbing Oakland Center
Thu 12:23:43 PM 37.2242 -121.6719 139° Southeast 342 394 12,500 2,146 Climbing Oakland Center
Thu 12:24:00 PM 36.9177 -121.4014 141° Southeast  Level Estimated
Thu 12:24:44 PM 37.1456 -121.5850 139° Southeast 375 432 15,200  Level Oakland Center
Thu 12:25:46 PM 37.0589 -121.4947 140° Southeast 394 453 17,600 2,244 Climbing Oakland Center
Thu 12:26:47 PM 36.9747 -121.3992 138° Southeast 406 467 19,800 2,000 Climbing Oakland Center
Thu 12:27:49 PM 36.8850 -121.3011 139° Southeast 425 489 21,700 2,098 Climbing Oakland Center
Thu 12:28:50 PM 36.7800 -121.2128 146° Southeast 442 509 24,100 2,098 Climbing Oakland Center
Thu 12:29:52 PM 36.6722 -121.1253 147° Southeast 462 532 26,000 1,415 Climbing Oakland Center
Thu 12:30:53 PM 36.5606 -121.0317 146° Southeast 482 555 27,000 488 Climbing Oakland Center
Thu 12:31:55 PM 36.4369 -120.9336 147° Southeast 527 606 27,000  Level Oakland Center
Thu 12:32:56 PM 36.3106 -120.8325 147° Southeast 541 623 27,000  Level Oakland Center
Thu 12:33:57 PM 36.1597 -120.7097 147° Southeast 539 620 27,000  Level Oakland Center
Thu 12:34:59 PM 36.0339 -120.6072 147° Southeast 542 624 27,000  Level Oakland Center
Thu 12:36:01 PM 35.9072 -120.5053 147° Southeast 543 625 27,000  Level Oakland Center
Thu 12:37:02 PM 35.7792 -120.4044 147° Southeast 544 626 27,000  Level Oakland Center
Thu 12:38:04 PM 35.6508 -120.3031 147° Southeast 543 625 27,000  Level Oakland Center
Thu 12:39:05 PM 35.5206 -120.1997 147° Southeast 546 628 27,000  Level Oakland Center
Thu 12:40:07 PM 35.3889 -120.0964 147° Southeast 549 632 27,000 -49 Level Oakland Center
Thu 12:41:08 PM 35.2583 -119.9942 147° Southeast 550 633 26,900 -682 Descending Oakland Center
Thu 12:42:19 PM 35.1075 -119.8753 147° Southeast 535 616 25,500 -1,173 Descending Los Angeles Center
Thu 12:43:21 PM 35.0081 -119.7522 135° Southeast 514 592 24,300 -1,065 Descending Los Angeles Center
Thu 12:44:23 PM 34.9136 -119.6250 132° Southeast 508 585 23,300 -1,597 Descending Los Angeles Center
Thu 12:45:25 PM 34.8211 -119.4997 132° Southeast 501 577 21,000 -2,544 Descending Los Angeles Center
Thu 12:46:28 PM 34.7150 -119.3586 132° Southeast 476 548 18,000 -2,544 Descending Los Angeles Center
Thu 12:47:30 PM 34.6325 -119.2492 132° Southeast 448 516 15,700 -2,081 Descending Los Angeles Center
Thu 12:48:32 PM 34.5639 -119.1550 131° Southeast 420 483 13,700 -2,081 Descending Los Angeles Center
Thu 12:49:34 PM 34.4825 -119.0450 132° Southeast 350 403 11,400 -1,742 Descending Los Angeles Center
Thu 12:50:36 PM 34.4250 -118.9706 133° Southeast 300 345 10,100 -1,161 Descending Los Angeles Center
Thu 12:51:38 PM 34.3719 -118.8978 131° Southeast 289 333 9,000 -1,258 Descending Los Angeles Center
Thu 12:52:40 PM 34.3083 -118.8436 145° Southeast 282 325 7,500 -1,248 Descending Los Angeles Center
Thu 12:53:43 PM 34.2744 -118.7697 119° Southeast 249 287 6,400 -912 Descending Los Angeles Center
Thu 12:54:45 PM 34.2336 -118.6817 119° Southeast 249 287 5,600 -968 Descending Los Angeles Center
Thu 12:55:47 PM 34.2033 -118.6131 118° Southeast 238 274 4,400 -1,069 Descending Los Angeles Center
Thu 12:56:26 PM 34.2000 -118.5667 95° East 200 230 3,800 -788 Descending Southern California TRACON
Thu 12:57:26 PM 34.2000 -118.5000 90° East 167 192 3,100 -750 Descending Southern California TRACON
Thu 12:58:26 PM 34.2000 -118.4667 90° East 139 160 2,300 -800 Descending Southern California TRACON
Thu 12:59:26 PM 34.2000 -118.4167 90° East 138 159 1,500 -513 Descending Southern California TRACON
Thu 01:00:58 PM 34.1983 -118.3469 92° East 143 165 1,000 -326 Descending Los Angeles Center
Thu 01:02:00 PM 34.2000 -118.3500 320° Northwest  Level FlightAware Approximate

Login

Don't have an account? Register now (free) for customized features, flight alerts, and more!